Time;durP1;ratioP1;P1;durP2;ratioP2;P2;SDS_P1;SDS_P2;PMS_P1;PMS_P2;Temp;Humidity;BMP_temperature;BMP_pressure;BME280_temperature;BME280_humidity;BME280_pressure;Samples;Min_cycle;Max_cycle;Signal;HPM_P1;HPM_P2
2023/07/20 00:01:13;;;;;;;3.28;1.90;;;;;23.40;101298.00;;;;5108177;28;20230;-80
2023/07/20 00:03:40;;;;;;;2.70;1.88;;;;;23.40;101296.00;;;;5109700;28;20201;-81
2023/07/20 00:06:08;;;;;;;3.00;1.70;;;;;23.40;101300.00;;;;5090837;28;20206;-80
2023/07/20 00:08:35;;;;;;;3.58;1.98;;;;;23.40;101296.00;;;;5088502;28;20671;-80
2023/07/20 00:11:04;;;;;;;3.97;2.08;;;;;23.30;101294.00;;;;5088565;28;20664;-81
2023/07/20 00:13:31;;;;;;;3.05;1.83;;;;;23.30;101291.00;;;;5088445;28;20190;-79
2023/07/20 00:15:58;;;;;;;2.40;1.77;;;;;23.30;101296.00;;;;5088978;28;20194;-80
2023/07/20 00:18:26;;;;;;;1.95;1.60;;;;;23.30;101296.00;;;;5088519;28;20216;-80
2023/07/20 00:20:53;;;;;;;3.92;2.10;;;;;23.30;101298.00;;;;5089313;28;20620;-80
2023/07/20 00:23:22;;;;;;;2.47;1.52;;;;;23.30;101289.00;;;;5107768;28;20205;-80
2023/07/20 00:25:49;;;;;;;2.90;1.90;;;;;23.30;101297.00;;;;5108860;28;20197;-80
2023/07/20 00:28:18;;;;;;;3.35;1.50;;;;;23.20;101300.00;;;;5108268;28;20229;-81
2023/07/20 00:30:45;;;;;;;2.00;1.38;;;;;23.20;101297.00;;;;5109188;28;20214;-81
2023/07/20 00:33:13;;;;;;;3.30;1.75;;;;;23.20;101302.00;;;;5108349;28;20208;-80
2023/07/20 00:35:41;;;;;;;5.65;1.65;;;;;23.20;101298.00;;;;5108411;28;20679;-80
2023/07/20 00:38:08;;;;;;;2.78;1.90;;;;;23.10;101298.00;;;;5107500;28;20196;-81
2023/07/20 00:40:37;;;;;;;2.08;1.80;;;;;23.10;101305.00;;;;5108095;28;20547;-80
2023/07/20 00:43:05;;;;;;;3.67;1.92;;;;;23.10;101289.00;;;;5108009;28;20663;-80
2023/07/20 00:45:35;;;;;;;1.50;1.25;;;;;23.00;101291.00;;;;5108487;28;20212;-80
2023/07/20 00:48:04;;;;;;;2.05;1.63;;;;;23.00;101296.00;;;;5108455;28;20232;-80
2023/07/20 00:50:32;;;;;;;2.60;1.83;;;;;23.00;101288.00;;;;5108175;28;20197;-80
2023/07/20 00:53:00;;;;;;;1.50;1.20;;;;;22.90;101297.00;;;;5107985;28;20670;-80
2023/07/20 00:55:29;;;;;;;1.25;1.10;;;;;22.90;101306.00;;;;5106944;28;20214;-81
2023/07/20 00:57:56;;;;;;;1.15;1.05;;;;;22.90;101302.00;;;;5108163;28;20205;-80
2023/07/20 01:00:23;;;;;;;3.85;1.50;;;;;22.90;101305.00;;;;5107770;28;20244;-80
2023/07/20 01:02:53;;;;;;;1.80;1.25;;;;;22.80;101296.00;;;;5108337;28;20245;-80
2023/07/20 01:05:22;;;;;;;1.88;1.10;;;;;22.80;101306.00;;;;5107923;28;20811;-81
2023/07/20 01:07:58;;;;;;;1.80;1.55;;;;;22.70;101300.00;;;;5107898;28;20231;-81
2023/07/20 01:10:32;;;;;;;2.47;1.20;;;;;22.70;101299.00;;;;5107759;28;20201;-81
2023/07/20 01:13:00;;;;;;;1.13;0.95;;;;;22.70;101300.00;;;;5098693;28;20205;-81
2023/07/20 01:15:27;;;;;;;2.17;1.38;;;;;22.70;101306.00;;;;5087558;28;20722;-81
2023/07/20 01:17:56;;;;;;;1.88;1.13;;;;;22.60;101305.00;;;;5088031;28;20198;-81
2023/07/20 01:20:24;;;;;;;1.30;1.20;;;;;22.60;101302.00;;;;5087600;28;20190;-81
2023/07/20 01:23:22;;;;;;;1.35;1.08;;;;;22.50;101296.00;;;;5087463;28;20663;-81
2023/07/20 01:26:09;;;;;;;1.58;1.15;;;;;22.50;101303.00;;;;5088161;28;20221;-81
2023/07/20 01:29:08;;;;;;;2.15;1.20;;;;;22.40;101304.00;;;;5088116;28;20232;-81
2023/07/20 01:31:38;;;;;;;1.73;1.30;;;;;22.40;101306.00;;;;5087278;28;20193;-81
2023/07/20 01:34:09;;;;;;;3.15;1.23;;;;;22.40;101306.00;;;;5087813;28;20210;-81
2023/07/20 01:36:38;;;;;;;1.60;1.20;;;;;22.40;101298.00;;;;5088118;28;20671;-81
2023/07/20 01:39:07;;;;;;;2.03;1.13;;;;;22.40;101298.00;;;;5088279;28;20203;-81
2023/07/20 01:41:35;;;;;;;2.05;1.23;;;;;22.30;101293.00;;;;5087529;28;20202;-81
2023/07/20 01:44:04;;;;;;;2.25;1.50;;;;;22.30;101297.00;;;;5087678;28;20201;-81
2023/07/20 01:46:31;;;;;;;1.77;1.10;;;;;22.20;101300.00;;;;5088112;28;20213;-81
2023/07/20 01:49:00;;;;;;;1.27;1.05;;;;;22.20;101307.00;;;;5087551;28;20225;-81
2023/07/20 01:51:27;;;;;;;1.48;1.17;;;;;22.10;101316.00;;;;5087545;28;20198;-81
2023/07/20 01:53:54;;;;;;;1.45;1.10;;;;;22.10;101316.00;;;;5087813;28;20195;-81
2023/07/20 01:56:22;;;;;;;1.30;1.20;;;;;22.00;101310.00;;;;5086774;28;20210;-81
2023/07/20 01:58:49;;;;;;;1.35;1.13;;;;;22.00;101316.00;;;;5098213;28;20205;-81
2023/07/20 02:01:16;;;;;;;1.17;1.00;;;;;22.00;101314.00;;;;5089400;28;20577;-81
2023/07/20 02:03:43;;;;;;;1.60;1.00;;;;;21.90;101308.00;;;;5102637;28;20688;-81
2023/07/20 02:06:12;;;;;;;1.70;1.40;;;;;21.90;101314.00;;;;5090993;28;20566;-81
2023/07/20 02:08:39;;;;;;;1.33;1.10;;;;;21.90;101309.00;;;;5091060;28;20755;-80
2023/07/20 02:11:06;;;;;;;0.98;0.90;;;;;21.80;101305.00;;;;5091152;28;20201;-81
2023/07/20 02:13:34;;;;;;;1.45;0.98;;;;;21.80;101313.00;;;;5090552;28;20201;-81
2023/07/20 02:16:01;;;;;;;1.58;1.05;;;;;21.80;101313.00;;;;5091564;28;20194;-81
2023/07/20 02:18:28;;;;;;;1.20;1.10;;;;;21.70;101307.00;;;;5090445;28;20532;-82
2023/07/20 02:20:55;;;;;;;1.10;1.00;;;;;21.70;101311.00;;;;5091991;28;20198;-80
2023/07/20 02:23:24;;;;;;;1.83;1.27;;;;;21.60;101316.00;;;;5091111;28;20550;-80
2023/07/20 02:25:51;;;;;;;1.00;0.88;;;;;21.60;101312.00;;;;5090555;28;20698;-80
2023/07/20 02:28:18;;;;;;;1.35;1.15;;;;;21.60;101306.00;;;;5090534;28;20590;-80
2023/07/20 02:30:46;;;;;;;0.90;0.85;;;;;21.60;101307.00;;;;5090845;28;20201;-82
2023/07/20 02:33:13;;;;;;;2.35;1.15;;;;;21.50;101310.00;;;;5095352;28;20201;-82
2023/07/20 02:35:42;;;;;;;1.70;1.10;;;;;21.50;101310.00;;;;5110520;28;20678;-82
2023/07/20 02:38:09;;;;;;;1.30;1.10;;;;;21.50;101314.00;;;;5110394;28;20216;-82
2023/07/20 02:40:37;;;;;;;1.33;0.88;;;;;21.40;101316.00;;;;5110675;28;20213;-82
2023/07/20 02:43:05;;;;;;;1.25;0.95;;;;;21.40;101313.00;;;;5110358;28;20209;-82
2023/07/20 02:45:32;;;;;;;1.30;0.90;;;;;21.40;101316.00;;;;5110949;28;20200;-82
2023/07/20 02:47:59;;;;;;;1.10;0.75;;;;;21.40;101319.00;;;;5111258;28;20218;-82
2023/07/20 02:50:26;;;;;;;1.10;1.00;;;;;21.30;101324.00;;;;5110441;28;20205;-82
2023/07/20 02:52:54;;;;;;;2.92;1.17;;;;;21.30;101327.00;;;;5110940;28;20675;-82
2023/07/20 02:55:21;;;;;;;0.98;0.98;;;;;21.30;101325.00;;;;5109046;28;20205;-82
2023/07/20 02:57:50;;;;;;;1.10;0.98;;;;;21.20;101329.00;;;;5110335;28;20208;-82
2023/07/20 03:00:19;;;;;;;1.08;0.98;;;;;21.20;101332.00;;;;5109551;28;20226;-82
2023/07/20 03:02:47;;;;;;;1.20;1.10;;;;;21.20;101331.00;;;;5110030;28;20821;-82
2023/07/20 03:05:15;;;;;;;0.88;0.80;;;;;21.20;101333.00;;;;5110005;28;20227;-82
2023/07/20 03:07:43;;;;;;;0.90;0.80;;;;;21.20;101332.00;;;;5110204;28;20261;-82
2023/07/20 03:10:11;;;;;;;0.98;0.90;;;;;21.10;101332.00;;;;5110837;28;20221;-82
2023/07/20 03:12:38;;;;;;;1.42;0.90;;;;;21.10;101332.00;;;;5095592;28;20206;-82
2023/07/20 03:15:08;;;;;;;1.20;0.75;;;;;21.10;101342.00;;;;5089348;28;20202;-82
2023/07/20 03:17:35;;;;;;;1.50;1.02;;;;;21.10;101338.00;;;;5090059;28;20202;-82
2023/07/20 03:20:03;;;;;;;1.10;1.00;;;;;21.10;101344.00;;;;5089566;28;20202;-82
2023/07/20 03:22:30;;;;;;;1.98;1.10;;;;;21.00;101347.00;;;;5089731;28;20228;-82
2023/07/20 03:24:58;;;;;;;1.20;1.08;;;;;21.00;101344.00;;;;5089851;28;20190;-82
2023/07/20 03:27:25;;;;;;;1.42;1.02;;;;;21.00;101346.00;;;;5089396;28;20562;-82
2023/07/20 03:29:52;;;;;;;1.35;1.02;;;;;20.90;101346.00;;;;5089908;28;20206;-82
2023/07/20 03:32:21;;;;;;;1.20;1.10;;;;;20.90;101345.00;;;;5104406;28;20205;-82
2023/07/20 03:34:48;;;;;;;1.10;0.90;;;;;20.90;101358.00;;;;5109681;28;20202;-82
2023/07/20 03:37:16;;;;;;;1.17;0.90;;;;;20.90;101351.00;;;;5110073;28;20189;-82
2023/07/20 03:39:43;;;;;;;0.93;0.82;;;;;20.90;101357.00;;;;5109550;28;20205;-82
2023/07/20 03:42:10;;;;;;;1.67;0.90;;;;;20.80;101352.00;;;;5110055;28;20220;-82
2023/07/20 03:44:38;;;;;;;1.13;0.80;;;;;20.80;101351.00;;;;5109667;28;20205;-81
2023/07/20 03:47:06;;;;;;;1.38;1.00;;;;;20.80;101350.00;;;;5108833;28;20288;-81
2023/07/20 03:49:35;;;;;;;2.72;1.42;;;;;20.80;101347.00;;;;5109624;28;20240;-81
2023/07/20 03:52:03;;;;;;;1.20;0.88;;;;;20.80;101356.00;;;;5109731;28;20248;-81
2023/07/20 03:54:30;;;;;;;0.65;0.65;;;;;20.70;101357.00;;;;5109667;28;20214;-81
2023/07/20 03:56:58;;;;;;;1.45;1.17;;;;;20.70;101357.00;;;;5108996;28;20570;-81
2023/07/20 03:59:25;;;;;;;0.98;0.88;;;;;20.70;101359.00;;;;5109454;28;20206;-81
2023/07/20 04:01:53;;;;;;;1.20;0.88;;;;;20.70;101351.00;;;;5108632;28;20706;-81
2023/07/20 04:04:20;;;;;;;1.70;1.10;;;;;20.70;101351.00;;;;5108441;28;20206;-81
2023/07/20 04:06:48;;;;;;;1.10;0.90;;;;;20.70;101362.00;;;;5109214;28;20193;-81
2023/07/20 04:09:16;;;;;;;1.75;0.80;;;;;20.70;101361.00;;;;5108465;28;20225;-81
2023/07/20 04:11:43;;;;;;;1.13;1.02;;;;;20.70;101363.00;;;;5109601;28;20193;-81
2023/07/20 04:14:10;;;;;;;1.23;0.80;;;;;20.70;101370.00;;;;5109450;28;20186;-82
2023/07/20 04:16:38;;;;;;;1.73;1.15;;;;;20.70;101370.00;;;;5108768;28;20220;-81
2023/07/20 04:19:05;;;;;;;1.02;0.80;;;;;20.70;101370.00;;;;5108735;28;20201;-81
2023/07/20 04:21:33;;;;;;;1.13;0.98;;;;;20.70;101377.00;;;;5108925;28;20206;-82
2023/07/20 04:24:01;;;;;;;1.02;0.90;;;;;20.70;101372.00;;;;5109506;28;20194;-81
2023/07/20 04:26:28;;;;;;;1.10;0.90;;;;;20.70;101372.00;;;;5108128;28;20194;-81
2023/07/20 04:28:56;;;;;;;1.23;1.13;;;;;20.70;101377.00;;;;5108873;28;20228;-81
2023/07/20 04:31:23;;;;;;;1.70;0.98;;;;;20.70;101380.00;;;;5107637;28;20682;-82
2023/07/20 04:33:50;;;;;;;1.52;0.90;;;;;20.80;101375.00;;;;5108776;28;20205;-81
2023/07/20 04:36:19;;;;;;;1.35;1.20;;;;;20.80;101386.00;;;;5107957;28;20209;-81
2023/07/20 04:38:46;;;;;;;1.35;1.25;;;;;20.80;101381.00;;;;5108912;28;20213;-81
2023/07/20 04:41:15;;;;;;;1.77;1.58;;;;;20.80;101380.00;;;;5108869;28;20205;-81
2023/07/20 04:43:45;;;;;;;1.63;1.50;;;;;20.80;101381.00;;;;5108198;28;20216;-81
2023/07/20 04:46:13;;;;;;;1.70;1.60;;;;;20.80;101383.00;;;;5108642;28;20194;-81
2023/07/20 04:48:40;;;;;;;1.50;1.20;;;;;20.80;101368.00;;;;5108937;28;20224;-81
2023/07/20 04:51:07;;;;;;;2.10;1.63;;;;;20.80;101382.00;;;;5108093;28;20190;-82
2023/07/20 04:53:35;;;;;;;1.88;1.60;;;;;20.90;101372.00;;;;5107596;28;20439;-81
2023/07/20 04:56:02;;;;;;;1.98;1.30;;;;;20.90;101383.00;;;;5108834;28;20205;-81
2023/07/20 04:58:30;;;;;;;2.13;1.80;;;;;20.90;101384.00;;;;5107969;28;20201;-81
2023/07/20 05:00:58;;;;;;;2.42;1.65;;;;;20.90;101383.00;;;;5108556;28;20225;-81
2023/07/20 05:03:25;;;;;;;2.25;1.83;;;;;20.90;101383.00;;;;5107822;28;20224;-82
2023/07/20 05:05:52;;;;;;;2.38;2.17;;;;;20.90;101388.00;;;;5107882;28;20233;-81
2023/07/20 05:08:22;;;;;;;2.03;1.88;;;;;20.90;101390.00;;;;5108276;28;20217;-81
2023/07/20 05:10:49;;;;;;;3.22;2.33;;;;;21.00;101385.00;;;;5101061;28;20686;-82
2023/07/20 05:13:17;;;;;;;3.15;2.30;;;;;21.00;101392.00;;;;5087386;28;20194;-81
2023/07/20 05:15:45;;;;;;;2.17;1.98;;;;;21.00;101390.00;;;;5087784;28;20202;-82
2023/07/20 05:18:13;;;;;;;3.13;2.15;;;;;21.10;101387.00;;;;5087342;28;20201;-81
2023/07/20 05:20:40;;;;;;;2.78;2.38;;;;;21.20;101387.00;;;;5087978;28;20267;-81
2023/07/20 05:23:07;;;;;;;2.00;1.83;;;;;21.20;101397.00;;;;5087811;28;20238;-81
2023/07/20 05:25:35;;;;;;;2.45;2.25;;;;;21.30;101391.00;;;;5087627;28;20194;-81
2023/07/20 05:28:02;;;;;;;2.55;2.33;;;;;21.30;101395.00;;;;5088039;28;20210;-81
2023/07/20 05:30:30;;;;;;;2.63;2.40;;;;;21.30;101391.00;;;;5087288;28;20200;-81
2023/07/20 05:32:58;;;;;;;3.15;2.85;;;;;21.40;101387.00;;;;5091395;28;20209;-82
2023/07/20 05:35:26;;;;;;;2.63;2.42;;;;;21.40;101394.00;;;;5107533;28;20194;-81
2023/07/20 05:37:53;;;;;;;2.80;2.58;;;;;21.50;101396.00;;;;5109981;28;20197;-83
2023/07/20 05:40:21;;;;;;;4.10;2.70;;;;;21.50;101393.00;;;;5111594;28;20208;-81
2023/07/20 05:42:51;;;;;;;2.95;2.50;;;;;21.50;101395.00;;;;5112366;28;20202;-82
2023/07/20 05:45:20;;;;;;;3.10;2.10;;;;;21.60;101392.00;;;;5110178;28;20202;-81
2023/07/20 05:47:48;;;;;;;2.80;2.35;;;;;21.70;101389.00;;;;5112067;28;20201;-82
2023/07/20 05:50:16;;;;;;;2.50;2.22;;;;;21.70;101384.00;;;;5112046;28;20328;-82
2023/07/20 05:52:44;;;;;;;2.58;2.00;;;;;21.80;101381.00;;;;5111757;28;20186;-82
2023/07/20 05:55:11;;;;;;;3.17;1.58;;;;;21.80;101383.00;;;;5112572;28;20285;-82
2023/07/20 05:57:41;;;;;;;4.57;2.20;;;;;21.90;101391.00;;;;5111023;28;20716;-83
2023/07/20 06:00:12;;;;;;;1.80;1.52;;;;;21.90;101386.00;;;;5111513;28;20237;-82
2023/07/20 06:02:39;;;;;;;2.17;1.63;;;;;22.00;101391.00;;;;5105400;28;20691;-82
2023/07/20 06:05:09;;;;;;;2.08;1.60;;;;;22.00;101396.00;;;;5111535;28;20196;-82
2023/07/20 06:07:37;;;;;;;1.23;1.13;;;;;22.00;101400.00;;;;5090153;28;20210;-82
2023/07/20 06:10:06;;;;;;;1.38;1.25;;;;;22.10;101399.00;;;;5091732;28;20232;-83
2023/07/20 06:12:34;;;;;;;2.72;1.10;;;;;22.20;101396.00;;;;5091210;28;20232;-82
2023/07/20 06:15:04;;;;;;;1.15;1.00;;;;;22.20;101402.00;;;;5091529;28;20242;-83
2023/07/20 06:17:31;;;;;;;1.70;1.20;;;;;22.30;101404.00;;;;5090752;28;20182;-82
2023/07/20 06:19:59;;;;;;;3.00;1.33;;;;;22.40;101397.00;;;;5090757;28;20288;-83
2023/07/20 06:22:26;;;;;;;1.85;1.27;;;;;22.40;101399.00;;;;5090739;28;20198;-82
2023/07/20 06:24:55;;;;;;;1.13;0.90;;;;;22.50;101410.00;;;;5091022;28;20209;-82
2023/07/20 06:27:22;;;;;;;1.75;1.20;;;;;22.50;101401.00;;;;5089769;28;20233;-82
2023/07/20 06:29:49;;;;;;;1.00;0.80;;;;;22.60;101408.00;;;;5090573;28;20706;-82
2023/07/20 06:32:16;;;;;;;1.33;0.88;;;;;22.70;101409.00;;;;5090571;28;20197;-83
2023/07/20 06:34:44;;;;;;;2.75;0.70;;;;;22.70;101413.00;;;;5108999;28;20201;-81
2023/07/20 06:37:11;;;;;;;1.30;0.77;;;;;22.80;101415.00;;;;5110205;28;20209;-82
2023/07/20 06:39:38;;;;;;;0.75;0.55;;;;;22.80;101423.00;;;;5110735;28;20197;-82
2023/07/20 06:42:07;;;;;;;0.68;0.47;;;;;22.90;101414.00;;;;5110957;28;20682;-83
2023/07/20 06:44:35;;;;;;;1.42;0.70;;;;;23.00;101424.00;;;;5110765;28;20956;-82
2023/07/20 06:47:02;;;;;;;0.95;0.70;;;;;23.00;101417.00;;;;5110271;28;20194;-82
2023/07/20 06:49:30;;;;;;;2.78;0.80;;;;;23.10;101423.00;;;;5109515;28;20232;-81
2023/07/20 06:51:57;;;;;;;1.00;0.90;;;;;23.20;101428.00;;;;5110433;28;20204;-81
2023/07/20 06:54:24;;;;;;;1.05;0.57;;;;;23.20;101428.00;;;;5090061;28;20197;-82
2023/07/20 06:56:52;;;;;;;1.15;0.60;;;;;23.30;101426.00;;;;5090602;28;20209;-82
2023/07/20 06:59:21;;;;;;;1.33;0.70;;;;;23.40;101427.00;;;;5088890;28;20210;-81
2023/07/20 07:01:48;;;;;;;0.63;0.60;;;;;23.40;101424.00;;;;5091040;28;20527;-82
2023/07/20 07:04:15;;;;;;;0.68;0.50;;;;;23.50;101425.00;;;;5110478;28;20674;-83
2023/07/20 07:06:43;;;;;;;0.70;0.52;;;;;23.50;101428.00;;;;5110937;28;20196;-82
2023/07/20 07:09:10;;;;;;;0.80;0.57;;;;;23.60;101420.00;;;;5107802;28;20219;-82
2023/07/20 07:11:37;;;;;;;3.17;0.60;;;;;23.60;101421.00;;;;5089872;28;20228;-82
2023/07/20 07:14:05;;;;;;;1.02;0.47;;;;;23.70;101431.00;;;;5089700;28;20675;-82
2023/07/20 07:16:33;;;;;;;0.85;0.57;;;;;23.80;101428.00;;;;5090181;28;20202;-82
2023/07/20 07:19:00;;;;;;;0.80;0.68;;;;;23.80;101429.00;;;;5090046;28;20213;-82
2023/07/20 07:21:28;;;;;;;1.77;0.68;;;;;23.90;101432.00;;;;5089340;28;20217;-82
2023/07/20 07:23:57;;;;;;;1.88;0.52;;;;;24.00;101429.00;;;;5090506;28;20210;-82
2023/07/20 07:26:24;;;;;;;0.55;0.38;;;;;24.00;101432.00;;;;5090181;28;20297;-82
2023/07/20 07:28:52;;;;;;;1.15;0.60;;;;;24.20;101432.00;;;;5089705;28;20206;-83
2023/07/20 07:31:19;;;;;;;0.85;0.40;;;;;24.30;101438.00;;;;5088766;28;20686;-83
2023/07/20 07:33:48;;;;;;;1.42;0.57;;;;;24.40;101428.00;;;;5100434;28;20193;-83
2023/07/20 07:36:15;;;;;;;0.80;0.38;;;;;24.50;101437.00;;;;5109482;28;20201;-82
2023/07/20 07:38:42;;;;;;;0.60;0.40;;;;;24.50;101437.00;;;;5109913;28;20578;-83
2023/07/20 07:41:10;;;;;;;0.38;0.30;;;;;24.50;101437.00;;;;5109299;28;20213;-83
2023/07/20 07:43:38;;;;;;;1.20;0.35;;;;;24.50;101440.00;;;;5108536;28;20698;-82
2023/07/20 07:46:05;;;;;;;0.85;0.57;;;;;24.50;101443.00;;;;5109552;28;20219;-82
2023/07/20 07:48:32;;;;;;;0.90;0.40;;;;;24.60;101440.00;;;;5109564;28;20205;-83
2023/07/20 07:51:01;;;;;;;0.43;0.30;;;;;24.60;101441.00;;;;5109404;28;20221;-82
2023/07/20 07:53:28;;;;;;;0.60;0.40;;;;;24.70;101441.00;;;;5110044;28;20189;-82
2023/07/20 07:55:55;;;;;;;1.33;0.50;;;;;24.80;101438.00;;;;5109737;28;20189;-83
2023/07/20 07:58:23;;;;;;;2.15;0.30;;;;;24.90;101439.00;;;;5108748;28;20190;-83
2023/07/20 08:00:50;;;;;;;0.88;0.50;;;;;25.00;101439.00;;;;5107393;28;20237;-83
2023/07/20 08:03:18;;;;;;;3.70;0.80;;;;;25.10;101443.00;;;;5108793;28;20590;-83
2023/07/20 08:05:45;;;;;;;0.73;0.35;;;;;25.20;101433.00;;;;5109663;28;20225;-83
2023/07/20 08:08:14;;;;;;;0.70;0.38;;;;;25.20;101424.00;;;;5108405;28;20199;-83
2023/07/20 08:10:41;;;;;;;0.38;0.30;;;;;25.40;101435.00;;;;5109092;28;20229;-83
2023/07/20 08:13:09;;;;;;;0.68;0.50;;;;;25.50;101434.00;;;;5109349;28;20208;-83
2023/07/20 08:15:36;;;;;;;0.50;0.40;;;;;25.50;101437.00;;;;5109113;28;20197;-83
2023/07/20 08:18:04;;;;;;;0.52;0.30;;;;;25.60;101439.00;;;;5108045;28;20225;-83
2023/07/20 08:20:32;;;;;;;0.57;0.30;;;;;25.70;101440.00;;;;5108390;28;20209;-84
2023/07/20 08:22:59;;;;;;;1.10;0.25;;;;;25.70;101436.00;;;;5108970;28;20623;-83
2023/07/20 08:25:28;;;;;;;1.13;0.60;;;;;25.60;101439.00;;;;5108973;28;20204;-82
2023/07/20 08:27:55;;;;;;;0.47;0.30;;;;;25.60;101443.00;;;;5108991;28;20758;-83
2023/07/20 08:30:24;;;;;;;0.70;0.50;;;;;25.60;101442.00;;;;5108463;28;20217;-83
2023/07/20 08:32:51;;;;;;;0.45;0.38;;;;;25.70;101446.00;;;;5108389;28;20202;-83
2023/07/20 08:35:18;;;;;;;1.33;0.50;;;;;25.80;101452.00;;;;5096920;28;20210;-82
2023/07/20 08:37:46;;;;;;;1.00;0.43;;;;;25.90;101450.00;;;;5088674;28;20209;-83
2023/07/20 08:40:14;;;;;;;1.92;0.30;;;;;26.00;101458.00;;;;5088112;28;20921;-84
2023/07/20 08:42:44;;;;;;;1.08;0.52;;;;;26.10;101454.00;;;;5088564;28;20233;-82
2023/07/20 08:45:14;;;;;;;1.98;0.60;;;;;26.20;101465.00;;;;5087932;28;20198;-81
2023/07/20 08:47:44;;;;;;;0.40;0.38;;;;;26.30;101456.00;;;;5088438;28;20240;-82
2023/07/20 08:50:12;;;;;;;0.73;0.40;;;;;26.40;101459.00;;;;5087957;28;20218;-84
2023/07/20 08:52:39;;;;;;;0.32;0.25;;;;;26.40;101456.00;;;;5088543;28;20217;-81
2023/07/20 08:55:07;;;;;;;0.45;0.38;;;;;26.40;101453.00;;;;5087848;28;20209;-83
2023/07/20 08:57:37;;;;;;;0.43;0.30;;;;;26.30;101457.00;;;;5087731;28;20530;-82
2023/07/20 09:00:09;;;;;;;1.25;0.38;;;;;26.20;101456.00;;;;5088146;28;20273;-82
2023/07/20 09:02:40;;;;;;;0.50;0.30;;;;;26.20;101447.00;;;;5093176;28;20218;-82
2023/07/20 09:05:10;;;;;;;0.28;0.20;;;;;26.20;101454.00;;;;5108446;28;20223;-82
2023/07/20 09:07:37;;;;;;;1.02;0.30;;;;;26.20;101448.00;;;;5107370;28;20258;-82
2023/07/20 09:10:06;;;;;;;0.32;0.25;;;;;26.30;101451.00;;;;5088489;28;20238;-82
2023/07/20 09:12:35;;;;;;;0.65;0.30;;;;;26.40;101454.00;;;;5087194;28;20675;-83
2023/07/20 09:15:03;;;;;;;0.20;0.20;;;;;26.50;101443.00;;;;5087674;28;20190;-82
2023/07/20 09:17:31;;;;;;;0.30;0.25;;;;;26.50;101450.00;;;;5087636;28;20217;-84
2023/07/20 09:19:59;;;;;;;0.43;0.43;;;;;26.60;101450.00;;;;5088127;28;20237;-83
2023/07/20 09:22:31;;;;;;;0.95;0.20;;;;;26.70;101449.00;;;;5087261;28;20209;-84
2023/07/20 09:24:59;;;;;;;0.57;0.30;;;;;26.90;101449.00;;;;5088685;28;20206;-82
2023/07/20 09:27:36;;;;;;;0.20;0.20;;;;;26.90;101460.00;;;;5087069;28;20210;-83
2023/07/20 09:30:04;;;;;;;0.47;0.20;;;;;27.10;101461.00;;;;5088336;28;20225;-82
2023/07/20 09:32:38;;;;;;;0.30;0.20;;;;;27.20;101454.00;;;;5087229;28;20198;-83
2023/07/20 09:35:06;;;;;;;0.52;0.30;;;;;27.20;101450.00;;;;5088262;28;20209;-83
2023/07/20 09:37:35;;;;;;;0.60;0.22;;;;;27.30;101451.00;;;;5100456;28;20237;-82
2023/07/20 09:40:02;;;;;;;0.98;0.47;;;;;27.30;101448.00;;;;5108190;28;20274;-82
2023/07/20 09:42:29;;;;;;;0.30;0.20;;;;;27.40;101441.00;;;;5107323;28;20208;-83
2023/07/20 09:44:57;;;;;;;0.17;0.17;;;;;27.40;101449.00;;;;5108100;28;20225;-82
2023/07/20 09:47:26;;;;;;;0.95;0.35;;;;;27.50;101448.00;;;;5107637;28;20210;-84
2023/07/20 09:50:00;;;;;;;2.08;0.52;;;;;27.50;101444.00;;;;5107705;28;20595;-84
2023/07/20 09:52:28;;;;;;;0.82;0.43;;;;;27.60;101441.00;;;;5107763;28;20318;-82
2023/07/20 09:54:56;;;;;;;0.40;0.20;;;;;27.70;101443.00;;;;5107963;28;20202;-83
2023/07/20 09:57:24;;;;;;;0.47;0.20;;;;;27.80;101439.00;;;;5106544;28;20597;-82
2023/07/20 09:59:51;;;;;;;0.47;0.40;;;;;27.90;101443.00;;;;5107343;28;20240;-83
2023/07/20 10:02:26;;;;;;;0.95;0.30;;;;;27.90;101442.00;;;;5107256;28;20512;-84
2023/07/20 10:04:55;;;;;;;0.82;0.32;;;;;28.00;101446.00;;;;5108408;28;20220;-84
2023/07/20 10:07:26;;;;;;;0.50;0.30;;;;;27.90;101448.00;;;;5106964;28;20190;-83
2023/07/20 10:09:56;;;;;;;0.57;0.30;;;;;27.90;101447.00;;;;5087040;28;20226;-82
2023/07/20 10:12:24;;;;;;;0.68;0.40;;;;;27.80;101451.00;;;;5086782;28;20202;-83
2023/07/20 10:14:58;;;;;;;0.35;0.28;;;;;27.70;101444.00;;;;5087577;28;20562;-82
2023/07/20 10:17:27;;;;;;;0.20;0.10;;;;;27.70;101436.00;;;;5087356;28;20237;-82
2023/07/20 10:20:01;;;;;;;0.30;0.20;;;;;27.60;101437.00;;;;5087043;28;20213;-83
2023/07/20 10:22:35;;;;;;;0.57;0.28;;;;;27.60;101440.00;;;;5087145;28;20201;-83
2023/07/20 10:25:05;;;;;;;0.63;0.20;;;;;27.70;101422.00;;;;5089072;28;20765;-82
2023/07/20 10:27:32;;;;;;;0.40;0.32;;;;;27.70;101431.00;;;;5090814;28;20243;-82
2023/07/20 10:30:02;;;;;;;1.63;0.40;;;;;27.80;101425.00;;;;5090578;28;20229;-82
2023/07/20 10:32:30;;;;;;;0.65;0.30;;;;;27.90;101428.00;;;;5091182;28;20659;-82
2023/07/20 10:34:58;;;;;;;0.45;0.30;;;;;28.00;101430.00;;;;5091272;28;20214;-81
2023/07/20 10:37:51;;;;;;;0.28;0.17;;;;;27.80;101438.00;;;;5090634;28;20217;-82
2023/07/20 10:40:32;;;;;;;2.10;0.65;;;;;27.80;101429.00;;;;5075024;28;20199;-82
2023/07/20 10:43:06;;;;;;;0.40;0.22;;;;;27.80;101430.00;;;;5090952;28;20256;-83
2023/07/20 10:45:52;;;;;;;0.85;0.40;;;;;27.80;101429.00;;;;5090896;28;20193;-82
2023/07/20 10:48:22;;;;;;;1.98;0.65;;;;;27.80;101427.00;;;;5089794;28;20584;-83
2023/07/20 10:51:10;;;;;;;0.55;0.28;;;;;27.70;101428.00;;;;5091180;28;20226;-83
2023/07/20 10:53:39;;;;;;;0.43;0.30;;;;;27.90;101422.00;;;;5089700;28;20275;-83
2023/07/20 10:56:13;;;;;;;0.93;0.30;;;;;27.80;101422.00;;;;5090558;28;20205;-83
2023/07/20 10:58:40;;;;;;;0.60;0.40;;;;;27.90;101425.00;;;;5089673;28;20198;-82
2023/07/20 11:01:08;;;;;;;0.63;0.50;;;;;28.00;101422.00;;;;5090297;28;20717;-82
2023/07/20 11:03:40;;;;;;;1.58;0.50;;;;;28.00;101414.00;;;;5102235;28;20222;-82
2023/07/20 11:06:34;;;;;;;0.80;0.32;;;;;27.90;101421.00;;;;5110593;28;20282;-82
2023/07/20 11:09:10;;;;;;;0.68;0.50;;;;;28.00;101415.00;;;;5092694;28;20194;-82
2023/07/20 11:11:38;;;;;;;1.13;0.80;;;;;28.10;101415.00;;;;5090026;28;20229;-82
2023/07/20 11:14:07;;;;;;;0.55;0.50;;;;;28.20;101412.00;;;;5089487;28;20209;-83
2023/07/20 11:16:42;;;;;;;1.13;0.55;;;;;28.20;101409.00;;;;5089484;28;20644;-84
2023/07/20 11:19:17;;;;;;;2.30;0.40;;;;;28.20;101411.00;;;;5089141;28;20197;-83
2023/07/20 11:21:46;;;;;;;0.40;0.32;;;;;28.40;101412.00;;;;5090241;28;20210;-82
2023/07/20 11:24:15;;;;;;;1.15;0.63;;;;;28.40;101414.00;;;;5090267;28;20217;-82
2023/07/20 11:26:43;;;;;;;0.95;0.43;;;;;28.40;101410.00;;;;5090055;28;20691;-83
2023/07/20 11:29:11;;;;;;;0.50;0.20;;;;;28.50;101406.00;;;;5089262;28;20655;-82
2023/07/20 11:31:39;;;;;;;0.50;0.30;;;;;28.50;101404.00;;;;5089635;28;20766;-83
2023/07/20 11:34:08;;;;;;;0.90;0.40;;;;;28.40;101396.00;;;;5089498;28;20206;-84
2023/07/20 11:36:35;;;;;;;0.47;0.35;;;;;28.40;101401.00;;;;5089009;28;20448;-82
2023/07/20 11:39:04;;;;;;;2.05;0.40;;;;;28.40;101404.00;;;;5100463;28;20200;-82
2023/07/20 11:41:33;;;;;;;1.40;0.60;;;;;28.40;101400.00;;;;5109252;28;20237;-84
2023/07/20 11:44:01;;;;;;;1.42;0.60;;;;;28.40;101391.00;;;;5108805;28;20674;-83
2023/07/20 11:46:29;;;;;;;0.45;0.45;;;;;28.40;101401.00;;;;5109348;28;20205;-82
2023/07/20 11:48:59;;;;;;;0.60;0.40;;;;;28.40;101395.00;;;;5109747;28;20618;-83
2023/07/20 11:51:27;;;;;;;0.90;0.40;;;;;28.40;101396.00;;;;5108830;28;20302;-81
2023/07/20 11:53:55;;;;;;;0.38;0.30;;;;;28.40;101397.00;;;;5109430;28;20265;-82
2023/07/20 11:56:23;;;;;;;0.68;0.50;;;;;28.50;101386.00;;;;5109547;28;20553;-81
2023/07/20 11:58:55;;;;;;;0.75;0.50;;;;;28.40;101387.00;;;;5107970;28;20197;-81
2023/07/20 12:01:24;;;;;;;0.82;0.60;;;;;28.50;101377.00;;;;5109463;28;20593;-81
2023/07/20 12:03:51;;;;;;;0.50;0.38;;;;;28.50;101385.00;;;;5108743;28;20197;-82
2023/07/20 12:06:19;;;;;;;0.45;0.40;;;;;28.50;101381.00;;;;5109173;28;20205;-83
2023/07/20 12:08:46;;;;;;;0.70;0.40;;;;;28.60;101376.00;;;;5109754;28;20248;-83
2023/07/20 12:11:13;;;;;;;0.85;0.32;;;;;28.60;101380.00;;;;5108800;28;20236;-83
2023/07/20 12:13:45;;;;;;;0.60;0.50;;;;;28.60;101376.00;;;;5109384;28;20204;-82
2023/07/20 12:16:15;;;;;;;1.05;0.40;;;;;28.70;101382.00;;;;5098839;28;20205;-82